createdAt,value
2019-02-06T00:02:34.485Z,85.67
2019-02-06T00:05:15.830Z,92.50
2019-02-06T00:07:57.341Z,84.60
2019-02-06T00:10:26.603Z,87.30
2019-02-06T00:12:55.898Z,78.30
2019-02-06T00:15:44.039Z,88.33
2019-02-06T00:18:32.438Z,95.67
2019-02-06T00:21:20.824Z,92.90
2019-02-06T00:24:08.931Z,98.47
2019-02-06T00:26:57.309Z,81.73
2019-02-06T00:29:45.347Z,78.07
2019-02-06T00:32:33.483Z,85.90
2019-02-06T00:35:25.835Z,89.30
2019-02-06T00:38:11.622Z,92.33
2019-02-06T00:40:59.739Z,78.10
2019-02-06T00:43:49.582Z,87.30
2019-02-06T00:49:32.550Z,86.30
2019-02-06T00:52:20.681Z,102.47
2019-02-06T00:55:07.223Z,85.83
2019-02-06T00:57:55.353Z,95.37
2019-02-06T01:00:36.467Z,94.00
2019-02-06T01:03:17.815Z,99.33
2019-02-06T01:05:58.875Z,91.07
2019-02-06T01:08:39.563Z,97.30
2019-02-06T01:11:20.019Z,81.13
2019-02-06T01:14:00.714Z,93.23
2019-02-06T01:16:41.430Z,97.23
2019-02-06T01:19:22.122Z,94.73
2019-02-06T01:22:02.751Z,98.37
2019-02-06T01:24:43.628Z,101.40
2019-02-06T01:27:13.157Z,104.00
2019-02-06T01:30:01.370Z,101.27
2019-02-06T01:32:49.490Z,97.83
2019-02-06T01:35:49.207Z,107.17
2019-02-06T01:38:27.842Z,106.40
2019-02-06T01:41:15.962Z,107.03
2019-02-06T01:44:04.169Z,101.40
2019-02-06T01:46:52.306Z,92.40
2019-02-06T01:49:40.424Z,120.17
2019-02-06T01:52:28.570Z,107.10
2019-02-06T01:55:16.776Z,116.00
2019-02-06T01:58:04.908Z,98.10
2019-02-06T02:00:53.187Z,117.10
2019-02-06T02:03:41.341Z,116.90
2019-02-06T02:06:29.506Z,101.10
2019-02-06T02:09:36.700Z,108.33
2019-02-06T02:12:25.155Z,121.67
2019-02-06T02:15:13.877Z,117.03
2019-02-06T02:18:02.043Z,124.63
2019-02-06T02:20:42.374Z,125.43
2019-02-06T02:23:23.220Z,121.70
2019-02-06T02:26:04.037Z,110.53
2019-02-06T02:28:44.639Z,111.67
2019-02-06T02:31:25.494Z,109.87
2019-02-06T02:34:06.538Z,115.33
2019-02-06T02:36:48.435Z,107.10
2019-02-06T02:39:28.785Z,118.97
2019-02-06T02:42:10.298Z,112.53
2019-02-06T02:44:39.267Z,133.37
2019-02-06T02:47:27.438Z,114.57
2019-02-06T02:50:15.581Z,136.53
2019-02-06T02:53:03.840Z,115.60
2019-02-06T02:55:51.991Z,118.23
2019-02-06T02:58:40.154Z,120.40
2019-02-06T03:01:28.254Z,123.20
2019-02-06T03:04:35.459Z,109.33
2019-02-06T03:07:23.831Z,106.00
2019-02-06T03:10:12.542Z,95.63
2019-02-06T03:13:00.715Z,114.13
2019-02-06T03:15:48.834Z,106.70
2019-02-06T03:18:36.958Z,127.20
2019-02-06T03:21:19.581Z,128.70
2019-02-06T03:24:00.345Z,122.57
2019-02-06T03:26:41.090Z,121.50
2019-02-06T03:29:20.731Z,121.67
2019-02-06T03:32:08.883Z,109.97
2019-02-06T03:34:57.235Z,113.53
2019-02-06T03:37:45.373Z,110.50
2019-02-06T03:40:33.487Z,112.20
2019-02-06T03:43:21.812Z,110.43
2019-02-06T03:46:09.927Z,96.77
2019-02-06T03:48:58.167Z,110.03
2019-02-06T03:51:46.280Z,105.70
2019-02-06T03:54:34.401Z,101.77
2019-02-06T03:57:22.502Z,98.70
2019-02-06T04:00:12.162Z,104.53
2019-02-06T04:02:41.156Z,117.43
2019-02-06T04:05:29.215Z,119.30
2019-02-06T04:08:17.355Z,121.87
2019-02-06T04:11:05.486Z,126.80
2019-02-06T04:13:53.734Z,132.73
2019-02-06T04:16:42.217Z,125.10
2019-02-06T04:19:30.363Z,129.03
2019-02-06T04:22:18.492Z,115.13
2019-02-06T04:25:06.751Z,118.97
2019-02-06T04:27:55.171Z,111.97
2019-02-06T04:30:43.304Z,103.63
2019-02-06T04:33:31.431Z,112.03
2019-02-06T04:36:19.491Z,125.40
2019-02-06T04:39:08.030Z,105.97
2019-02-06T04:41:57.868Z,110.30
2019-02-06T04:44:46.195Z,106.17
2019-02-06T04:47:34.327Z,102.33
2019-02-06T04:50:22.470Z,99.83
2019-02-06T04:53:10.587Z,98.77
2019-02-06T04:55:58.719Z,103.27
2019-02-06T04:58:46.830Z,94.47
2019-02-06T05:01:36.827Z,91.97
2019-02-06T05:04:24.956Z,110.60
2019-02-06T05:07:19.289Z,102.50
2019-02-06T05:10:02.871Z,108.00
2019-02-06T05:12:51.051Z,101.23
2019-02-06T05:15:39.201Z,108.60
2019-02-06T05:18:27.319Z,104.40
2019-02-06T05:21:08.503Z,115.87
2019-02-06T05:23:49.150Z,110.90
2019-02-06T05:26:30.122Z,124.20
2019-02-06T05:29:11.175Z,122.70
2019-02-06T05:31:52.043Z,94.47
2019-02-06T05:34:32.632Z,113.03
2019-02-06T05:37:13.654Z,103.27
2019-02-06T05:39:42.576Z,132.57
2019-02-06T05:42:30.639Z,123.90
2019-02-06T05:45:19.127Z,119.57
2019-02-06T05:48:07.254Z,126.50
2019-02-06T05:50:55.306Z,113.07
2019-02-06T05:53:43.443Z,113.20
2019-02-06T05:56:31.583Z,134.00
2019-02-06T05:59:19.628Z,125.10
2019-02-06T06:02:07.688Z,115.73
2019-02-06T06:04:55.807Z,117.40
2019-02-06T06:07:45.473Z,101.27
2019-02-06T06:10:33.834Z,91.90
2019-02-06T06:13:21.969Z,112.07
2019-02-06T06:16:10.177Z,95.40
2019-02-06T06:18:58.311Z,96.40
2019-02-06T06:21:27.170Z,81.37
2019-02-06T06:24:15.291Z,108.30
2019-02-06T06:27:03.675Z,88.90
2019-02-06T06:29:51.789Z,93.40
2019-02-06T06:32:40.335Z,116.07
2019-02-06T06:35:28.701Z,104.20
2019-02-06T06:38:16.824Z,126.10
2019-02-06T06:41:05.018Z,129.53
2019-02-06T06:43:53.101Z,125.57
2019-02-06T06:46:41.206Z,113.90
2019-02-06T06:49:29.287Z,115.93
2019-02-06T06:52:19.067Z,100.20
2019-02-06T06:55:07.571Z,95.20
2019-02-06T06:57:55.707Z,91.07
2019-02-06T07:00:43.840Z,106.53
2019-02-06T07:03:31.975Z,87.60
2019-02-06T07:06:20.095Z,92.20
2019-02-06T07:09:08.896Z,109.67
2019-02-06T07:11:37.874Z,83.20
2019-02-06T07:14:25.995Z,91.27
2019-02-06T07:17:14.115Z,89.87
2019-02-06T07:19:55.155Z,93.13
2019-02-06T07:22:35.531Z,109.47
2019-02-06T07:25:16.082Z,101.37
2019-02-06T07:27:57.306Z,113.57
2019-02-06T07:30:41.030Z,104.23
2019-02-06T07:33:22.324Z,105.57
2019-02-06T07:36:03.351Z,112.87
2019-02-06T07:41:33.540Z,110.87
2019-02-06T07:46:56.651Z,110.60
2019-02-06T07:49:37.171Z,100.37
2019-02-06T07:52:17.948Z,111.60
2019-02-06T07:57:44.735Z,93.27
2019-02-06T08:00:25.101Z,92.87
2019-02-06T08:05:47.992Z,84.60
2019-02-06T08:08:35.593Z,82.87
2019-02-06T08:11:10.970Z,79.23
2019-02-06T08:13:52.491Z,74.73
2019-02-06T08:16:32.885Z,73.10
2019-02-06T08:19:16.451Z,65.80
2019-02-06T08:21:57.999Z,62.20
2019-02-06T08:27:20.573Z,60.73
2019-02-06T08:30:01.086Z,63.50
2019-02-06T08:32:41.740Z,72.87
2019-02-06T08:35:22.890Z,55.13
2019-02-06T08:38:03.610Z,65.60
2019-02-06T08:40:44.346Z,70.57
2019-02-06T08:43:24.872Z,60.03
2019-02-06T08:46:05.651Z,72.20
2019-02-06T08:48:46.400Z,61.67
2019-02-06T08:51:27.465Z,61.77
2019-02-06T08:54:08.707Z,59.93
2019-02-06T08:56:49.480Z,75.30
2019-02-06T08:59:29.919Z,55.10
2019-02-06T09:02:10.703Z,73.70
2019-02-06T09:04:55.882Z,60.87
2019-02-06T09:07:33.951Z,53.20
2019-02-06T09:10:14.762Z,56.43
2019-02-06T09:12:55.753Z,55.73
2019-02-06T09:15:36.119Z,50.73
2019-02-06T09:18:16.858Z,59.60
2019-02-06T09:20:57.794Z,56.90
2019-02-06T09:23:39.368Z,59.97
2019-02-06T09:26:20.906Z,55.07
2019-02-06T09:29:01.258Z,49.07
2019-02-06T09:31:41.959Z,55.20
2019-02-06T09:34:25.648Z,54.70
2019-02-06T09:39:49.110Z,52.00
2019-02-06T09:42:30.531Z,55.93
2019-02-06T09:45:11.351Z,55.87
2019-02-06T09:47:51.706Z,53.77
2019-02-06T09:50:33.290Z,55.93
2019-02-06T09:53:13.987Z,43.60
2019-02-06T09:58:36.470Z,49.50
2019-02-06T10:04:06.359Z,52.20
2019-02-06T10:09:36.526Z,56.87
2019-02-06T10:12:17.826Z,49.07
2019-02-06T10:14:58.603Z,49.50
2019-02-06T10:20:25.451Z,47.37
2019-02-06T10:23:05.828Z,50.80
2019-02-06T10:25:46.283Z,52.10
2019-02-06T10:28:27.009Z,55.20
2019-02-06T10:31:07.710Z,51.33
2019-02-06T10:33:48.343Z,48.17
2019-02-06T10:36:29.215Z,51.13
2019-02-06T10:39:09.787Z,51.53
2019-02-06T10:44:32.536Z,52.73
2019-02-06T10:47:12.987Z,60.83
2019-02-06T10:49:53.591Z,50.70
2019-02-06T10:52:34.212Z,54.23
2019-02-06T10:55:14.947Z,51.20
2019-02-06T10:57:55.543Z,59.50
2019-02-06T11:00:36.312Z,54.73
2019-02-06T11:03:17.182Z,51.03
2019-02-06T11:05:57.682Z,50.43
2019-02-06T11:11:24.410Z,56.13
2019-02-06T11:14:05.379Z,51.73
2019-02-06T11:19:29.191Z,49.37
2019-02-06T11:22:10.169Z,45.13
2019-02-06T11:24:51.011Z,47.43
2019-02-06T11:27:31.735Z,44.20
2019-02-06T11:30:12.746Z,50.60
2019-02-06T11:35:35.501Z,45.27
2019-02-06T11:38:16.256Z,53.27
2019-02-06T11:40:56.911Z,49.20
2019-02-06T11:43:37.799Z,46.47
2019-02-06T11:46:18.431Z,47.07
2019-02-06T11:48:59.031Z,45.33
2019-02-06T11:51:39.658Z,48.63
2019-02-06T11:54:20.679Z,60.07
2019-02-06T11:57:01.398Z,54.97
2019-02-06T11:59:42.661Z,49.03
2019-02-06T12:02:36.660Z,47.33
2019-02-06T12:05:07.347Z,53.90
2019-02-06T12:07:47.830Z,45.33
2019-02-06T12:10:28.444Z,46.93
2019-02-06T12:13:09.243Z,47.67
2019-02-06T12:15:49.647Z,50.87
2019-02-06T12:18:30.147Z,47.10
2019-02-06T12:21:11.047Z,115.37
2019-02-06T12:23:51.642Z,48.23
2019-02-06T12:26:32.318Z,46.07
2019-02-06T12:29:12.964Z,46.23
2019-02-06T12:31:53.567Z,44.27
2019-02-06T12:34:34.363Z,47.23
2019-02-06T12:37:15.039Z,48.23
2019-02-06T12:42:45.119Z,40.80
2019-02-06T12:45:25.627Z,41.13
2019-02-06T12:48:06.573Z,44.47
2019-02-06T12:56:15.707Z,44.40
2019-02-06T12:58:56.576Z,42.87
2019-02-06T13:01:37.262Z,43.50
2019-02-06T13:04:18.155Z,41.83
2019-02-06T13:07:00.287Z,43.43
2019-02-06T13:09:41.003Z,44.23
2019-02-06T13:12:21.916Z,36.63
2019-02-06T13:17:44.504Z,37.73
2019-02-06T13:23:07.819Z,38.10
2019-02-06T13:28:30.926Z,39.93
2019-02-06T13:33:53.795Z,41.00
2019-02-06T13:39:29.991Z,57.20
2019-02-06T13:42:11.330Z,87.50
2019-02-06T13:44:55.154Z,59.93
2019-02-06T13:47:39.418Z,131.63
2019-02-06T13:50:22.304Z,57.30
2019-02-06T13:53:03.442Z,40.93
2019-02-06T13:55:44.683Z,44.00
2019-02-06T13:58:25.706Z,42.07
2019-02-06T14:01:06.438Z,36.20
2019-02-06T14:03:46.955Z,48.93
2019-02-06T14:06:28.186Z,40.43
2019-02-06T14:09:22.209Z,39.67
2019-02-06T14:11:55.042Z,46.10
2019-02-06T14:14:35.583Z,37.30
2019-02-06T14:17:18.187Z,40.23
2019-02-06T14:20:01.043Z,44.60
2019-02-06T14:28:28.012Z,31.50
2019-02-06T14:33:55.753Z,33.70
2019-02-06T14:36:36.239Z,39.30
2019-02-06T14:39:19.921Z,31.80
2019-02-06T14:44:41.604Z,32.63
2019-02-06T14:50:08.901Z,43.33
2019-02-06T14:52:49.502Z,30.70
2019-02-06T14:55:30.447Z,31.97
2019-02-06T14:58:11.159Z,32.57
2019-02-06T15:00:59.431Z,35.70
2019-02-06T15:03:34.562Z,31.70
2019-02-06T15:06:15.178Z,32.37
2019-02-06T15:08:56.231Z,32.70
2019-02-06T15:11:37.099Z,29.53
2019-02-06T15:14:18.075Z,26.97
2019-02-06T15:16:58.677Z,39.33
2019-02-06T15:19:39.339Z,32.10
2019-02-06T15:22:20.070Z,43.97
2019-02-06T15:25:00.660Z,78.10
2019-02-06T15:27:41.627Z,32.80
2019-02-06T15:30:22.273Z,45.40
2019-02-06T15:35:44.790Z,28.03
2019-02-06T15:38:25.237Z,32.03
2019-02-06T15:43:54.996Z,34.50
2019-02-06T15:46:35.943Z,31.23
2019-02-06T15:49:17.061Z,47.40
2019-02-06T15:51:59.520Z,70.87
2019-02-06T15:54:39.934Z,153.67
2019-02-06T15:57:20.939Z,63.57
2019-02-06T16:00:02.091Z,44.27
2019-02-06T16:02:42.483Z,37.83
2019-02-06T16:11:24.166Z,44.07
2019-02-06T16:14:04.574Z,42.60
2019-02-06T16:16:48.963Z,41.43
2019-02-06T16:22:12.233Z,30.97
2019-02-06T16:24:52.589Z,36.47
2019-02-06T16:30:19.429Z,31.33
2019-02-06T16:38:28.502Z,38.63
2019-02-06T16:41:09.561Z,43.63
2019-02-06T16:43:50.709Z,49.83
2019-02-06T16:46:34.332Z,49.23
2019-02-06T16:52:00.966Z,46.80
2019-02-06T16:57:30.429Z,44.23
2019-02-06T17:00:11.410Z,58.07
2019-02-06T17:08:26.973Z,61.37
2019-02-06T17:11:37.033Z,69.53
2019-02-06T17:17:59.923Z,52.80
2019-02-06T17:24:15.821Z,50.77
2019-02-06T17:27:07.406Z,52.30
2019-02-06T17:30:14.655Z,56.40
2019-02-06T17:33:21.919Z,51.03
2019-02-06T17:36:02.989Z,57.03
2019-02-06T17:39:10.253Z,48.67
2019-02-06T17:42:17.808Z,56.20
2019-02-06T17:45:25.054Z,62.87
2019-02-06T17:48:32.328Z,59.77
2019-02-06T17:51:39.557Z,50.83
2019-02-06T17:57:39.490Z,60.00
2019-02-06T18:03:23.646Z,69.60
2019-02-06T18:06:12.367Z,60.13
2019-02-06T18:09:00.612Z,67.97
2019-02-06T18:11:50.511Z,54.67
2019-02-06T18:14:38.620Z,64.90
2019-02-06T18:17:26.673Z,64.33
2019-02-06T18:20:15.500Z,59.53
2019-02-06T18:23:03.697Z,59.10
2019-02-06T18:29:07.026Z,62.57
2019-02-06T18:31:55.386Z,117.47
2019-02-06T18:34:36.445Z,73.87
2019-02-06T18:37:17.217Z,72.87
2019-02-06T18:39:58.419Z,59.00
2019-02-06T18:42:39.233Z,64.30
2019-02-06T18:45:20.079Z,85.10
2019-02-06T18:48:01.173Z,76.03
2019-02-06T18:50:42.138Z,58.73
2019-02-06T18:53:22.909Z,74.60
2019-02-06T18:56:03.854Z,56.03
2019-02-06T18:58:45.135Z,54.83
2019-02-06T19:01:25.887Z,58.50
2019-02-06T19:04:06.592Z,55.83
2019-02-06T19:06:47.082Z,58.43
2019-02-06T19:09:29.004Z,60.70
2019-02-06T19:12:10.396Z,84.77
2019-02-06T19:14:51.331Z,55.23
2019-02-06T19:17:32.650Z,397.73
2019-02-06T19:20:13.369Z,61.93
2019-02-06T19:22:53.973Z,51.63
2019-02-06T19:25:34.565Z,50.07
2019-02-06T19:28:15.245Z,72.60
2019-02-06T19:30:56.243Z,53.03
2019-02-06T19:33:36.866Z,43.20
2019-02-06T19:36:17.388Z,59.07
2019-02-06T19:38:58.568Z,48.80
2019-02-06T19:41:39.343Z,51.73
2019-02-06T19:47:06.240Z,49.43
2019-02-06T19:52:59.430Z,54.33
2019-02-06T19:55:28.512Z,55.57
2019-02-06T19:58:16.563Z,57.93
2019-02-06T20:01:06.416Z,69.80
2019-02-06T20:03:54.545Z,102.97
2019-02-06T20:06:42.601Z,106.80
2019-02-06T20:09:30.641Z,77.27
2019-02-06T20:12:18.786Z,97.60
2019-02-06T20:15:07.261Z,86.03
2019-02-06T20:17:55.407Z,76.13
2019-02-06T20:20:43.640Z,65.07
2019-02-06T20:23:31.701Z,120.50
2019-02-06T20:26:19.835Z,67.47
2019-02-06T20:29:08.273Z,51.67
2019-02-06T20:31:56.651Z,51.13
2019-02-06T20:34:39.635Z,53.00
2019-02-06T20:37:20.472Z,71.07
2019-02-06T20:40:01.677Z,53.13
2019-02-06T20:42:43.050Z,45.57
2019-02-06T20:45:24.313Z,55.03
2019-02-06T20:48:04.955Z,47.60
2019-02-06T20:50:46.218Z,40.63
2019-02-06T20:53:27.023Z,46.83
2019-02-06T20:56:07.539Z,50.70
2019-02-06T20:58:48.189Z,44.03
2019-02-06T21:01:28.591Z,51.10
2019-02-06T21:04:09.512Z,48.60
2019-02-06T21:12:57.782Z,42.97
2019-02-06T21:15:38.922Z,48.60
2019-02-06T21:21:12.542Z,49.20
2019-02-06T21:23:53.966Z,53.67
2019-02-06T21:29:19.486Z,50.83
2019-02-06T21:32:00.350Z,50.53
2019-02-06T21:34:41.318Z,41.27
2019-02-06T21:37:21.718Z,47.40
2019-02-06T21:40:02.374Z,47.43
2019-02-06T21:42:43.970Z,38.17
2019-02-06T21:45:24.894Z,44.63
2019-02-06T21:48:05.585Z,44.07
2019-02-06T21:50:46.329Z,43.00
2019-02-06T21:53:27.129Z,46.27
2019-02-06T21:56:07.665Z,47.37
2019-02-06T21:58:48.091Z,47.53
2019-02-06T22:01:29.266Z,49.20
2019-02-06T22:04:09.929Z,47.00
2019-02-06T22:06:52.525Z,51.83
2019-02-06T22:09:33.279Z,50.17
2019-02-06T22:12:14.041Z,46.80
2019-02-06T22:14:55.646Z,50.47
2019-02-06T22:17:36.461Z,48.60
2019-02-06T22:20:17.204Z,52.33
2019-02-06T22:22:57.858Z,41.63
2019-02-06T22:25:38.870Z,50.20
2019-02-06T22:28:19.420Z,55.27
2019-02-06T22:31:00.158Z,53.33
2019-02-06T22:33:40.811Z,48.23
2019-02-06T22:36:21.395Z,54.40
2019-02-06T22:39:02.348Z,56.47
2019-02-06T22:41:42.829Z,54.40
2019-02-06T22:44:23.449Z,59.17
2019-02-06T22:52:37.020Z,56.37
2019-02-06T22:55:17.903Z,56.73
2019-02-06T23:09:16.433Z,52.90
2019-02-06T23:14:46.324Z,52.40
2019-02-06T23:20:13.085Z,54.03
2019-02-06T23:25:43.207Z,56.20
2019-02-06T23:28:24.562Z,49.90
2019-02-06T23:31:05.108Z,64.73
2019-02-06T23:33:49.529Z,59.43
2019-02-06T23:39:19.826Z,51.23
2019-02-06T23:42:00.910Z,61.90
2019-02-06T23:44:41.934Z,57.40
2019-02-06T23:50:08.561Z,59.07
2019-02-06T23:52:49.306Z,56.43
2019-02-06T23:58:16.346Z,67.83
